createdAt,value
2018-03-11T18:22:14.236Z,10.312
2018-03-11T18:23:04.090Z,10.375
2018-03-11T18:24:03.501Z,10.25
2018-03-11T18:25:04.188Z,10.25
2018-03-11T18:26:03.594Z,10.25
2018-03-11T18:27:03.771Z,10.187
2018-03-11T18:28:03.633Z,10.187
2018-03-11T18:29:04.111Z,10.187
2018-03-11T18:30:04.011Z,10.25
2018-03-11T18:31:03.331Z,10.187
2018-03-11T18:32:03.822Z,10.25
2018-03-11T18:33:03.394Z,10.25
2018-03-11T18:34:04.896Z,10.25
2018-03-11T18:35:03.458Z,10.25
2018-03-11T18:36:03.790Z,10.25
2018-03-11T18:37:03.499Z,10.312
2018-03-11T18:38:03.440Z,10.25
2018-03-11T18:39:03.928Z,10.312
2018-03-11T18:40:03.621Z,10.25
2018-03-11T18:41:03.964Z,10.187
2018-03-11T18:42:03.549Z,10.125
2018-03-11T18:43:03.150Z,10.25
2018-03-11T18:44:03.734Z,10.25
2018-03-11T18:45:03.512Z,10.125
2018-03-11T18:46:03.875Z,10.062
2018-03-11T18:47:03.360Z,10.062
2018-03-11T18:48:03.908Z,10.125
2018-03-11T18:49:03.456Z,10.062
2018-03-11T18:50:03.990Z,10
2018-03-11T18:51:03.561Z,9.937
2018-03-11T18:52:04.056Z,9.875
2018-03-11T18:53:03.776Z,9.875
2018-03-11T18:54:03.223Z,9.812
2018-03-11T18:55:03.574Z,9.75
2018-03-11T18:56:04.053Z,9.812
2018-03-11T18:57:03.576Z,9.812
2018-03-11T18:58:03.395Z,9.812
2018-03-11T18:59:03.547Z,9.812
2018-03-11T19:00:03.621Z,9.812
2018-03-11T19:01:03.230Z,9.812
2018-03-11T19:02:03.702Z,9.75
2018-03-11T19:03:03.207Z,9.687
2018-03-11T19:04:03.699Z,9.562
2018-03-11T19:05:03.571Z,9.437
2018-03-11T19:06:03.949Z,9.437
2018-03-11T19:07:03.612Z,9.375
2018-03-11T19:08:03.231Z,9.312
2018-03-11T19:09:03.992Z,9.25
2018-03-11T19:10:03.473Z,9.187
2018-03-11T19:11:03.872Z,9.187
2018-03-11T19:12:03.354Z,9.187
2018-03-11T19:13:03.915Z,9.125
2018-03-11T19:14:03.528Z,9.125
2018-03-11T19:15:04.150Z,9.062
2018-03-11T19:16:03.662Z,9
2018-03-11T19:17:03.332Z,9.062
2018-03-11T19:18:03.878Z,9.062
2018-03-11T19:19:03.423Z,9.062
2018-03-11T19:20:04.215Z,9.062
2018-03-11T19:21:03.647Z,9.187
2018-03-11T19:22:03.244Z,9.187
2018-03-11T19:23:03.620Z,9.187
2018-03-11T19:24:03.709Z,9.187
2018-03-11T19:25:03.349Z,9.187
2018-03-11T19:26:03.947Z,9.25
2018-03-11T19:27:03.468Z,9.25
2018-03-11T19:28:03.880Z,9.25
2018-03-11T19:29:03.237Z,9.25
2018-03-11T19:30:03.842Z,9.25
2018-03-11T19:31:03.736Z,9.25
2018-03-11T19:32:03.228Z,9.187
2018-03-11T19:33:03.711Z,9.125
2018-03-11T19:34:03.188Z,9.062
2018-03-11T19:35:03.626Z,9.062
2018-03-11T19:36:03.967Z,9.062
2018-03-11T19:37:03.617Z,9.062
2018-03-11T19:38:03.197Z,9.125
2018-03-11T19:39:04.071Z,9
2018-03-11T19:40:04.493Z,9.062
2018-03-11T19:41:03.298Z,9
2018-03-11T19:42:03.801Z,8.937
2018-03-11T19:43:03.347Z,8.937
2018-03-11T19:44:03.884Z,8.812
2018-03-11T19:45:04.039Z,8.875
2018-03-11T19:46:03.809Z,8.812
2018-03-11T19:47:03.453Z,8.812
2018-03-11T19:48:04.005Z,8.812
2018-03-11T19:49:03.562Z,8.687
2018-03-11T19:50:04.088Z,8.687
2018-03-11T19:51:03.630Z,8.687
2018-03-11T19:52:03.171Z,8.75
2018-03-11T19:53:03.858Z,8.687
2018-03-11T19:54:03.563Z,8.687
2018-03-11T19:55:03.851Z,8.687
2018-03-11T19:56:03.321Z,8.625
2018-03-11T19:57:03.856Z,8.562
2018-03-11T19:58:03.394Z,8.625
2018-03-11T19:59:03.805Z,8.562
2018-03-11T20:00:03.425Z,8.5
2018-03-11T20:01:03.296Z,8.5
2018-03-11T20:02:04.441Z,8.5
2018-03-11T20:03:03.894Z,8.5
2018-03-11T20:04:03.458Z,8.5
2018-03-11T20:05:04.085Z,8.437
2018-03-11T20:06:03.528Z,8.437
2018-03-11T20:07:03.533Z,8.5
2018-03-11T20:08:04.004Z,8.437
2018-03-11T20:09:04.051Z,8.437
2018-03-11T20:10:03.509Z,8.437
2018-03-11T20:11:03.119Z,8.375
2018-03-11T20:12:03.631Z,8.375
2018-03-11T20:13:03.173Z,8.375
2018-03-11T20:14:03.787Z,8.375
2018-03-11T20:15:03.591Z,8.437
2018-03-11T20:16:03.143Z,8.5
2018-03-11T20:17:08.785Z,8.5
2018-03-11T20:18:03.375Z,8.437
2018-03-11T20:19:04.139Z,8.312
2018-03-11T20:20:03.692Z,8.312
2018-03-11T20:21:03.484Z,8.312
2018-03-11T20:22:03.842Z,8.25
2018-03-11T20:23:03.546Z,8.25
2018-03-11T20:24:03.951Z,8.187
2018-03-11T20:25:04.071Z,8.25
2018-03-11T20:26:03.534Z,8.25
2018-03-11T20:27:03.276Z,8.187
2018-03-11T20:28:03.843Z,8.187
2018-03-11T20:29:03.362Z,8.187
2018-03-11T20:30:04.272Z,8.187
2018-03-11T20:31:04.123Z,8.187
2018-03-11T20:32:03.717Z,8.187
2018-03-11T20:33:03.397Z,8.187
2018-03-11T20:34:03.631Z,8.25
2018-03-11T20:35:03.092Z,8.25
2018-03-11T20:36:03.710Z,8.312
2018-03-11T20:37:03.210Z,8.375
2018-03-11T20:38:03.705Z,8.312
2018-03-11T20:39:03.293Z,8.312
2018-03-11T20:40:04.228Z,8.312
2018-03-11T20:41:03.516Z,8.312
2018-03-11T20:42:03.258Z,8.25
2018-03-11T20:43:03.763Z,8.312
2018-03-11T20:44:03.286Z,8.25
2018-03-11T20:45:03.973Z,8.187
2018-03-11T20:46:03.474Z,8.125
2018-03-11T20:47:04.102Z,8.125
2018-03-11T20:48:03.573Z,8.187
2018-03-11T20:49:04.153Z,8.187
2018-03-11T20:50:03.858Z,8.187
2018-03-11T20:51:03.746Z,8.125
2018-03-11T20:52:03.287Z,8.125
2018-03-11T20:53:03.803Z,8.125
2018-03-11T20:54:03.332Z,8.125
2018-03-11T20:55:03.882Z,8.187
2018-03-11T20:56:03.412Z,8.187
2018-03-11T20:57:04.008Z,8.187
2018-03-11T20:58:03.361Z,8.187
2018-03-11T20:59:03.806Z,8.187
2018-03-11T21:00:03.627Z,8.125
2018-03-11T21:01:02.981Z,8.125
2018-03-11T21:02:03.584Z,8.125
2018-03-11T21:03:03.229Z,8.125
2018-03-11T21:04:03.802Z,8.125
2018-03-11T21:05:04.171Z,8.125
2018-03-11T21:06:03.645Z,8.125
2018-03-11T21:07:03.208Z,8.062
2018-03-11T21:08:03.634Z,8.062
2018-03-11T21:09:03.330Z,8.062
2018-03-11T21:10:03.807Z,8.062
2018-03-11T21:11:03.295Z,8
2018-03-11T21:12:03.780Z,7.937
2018-03-11T21:13:03.189Z,7.937
2018-03-11T21:14:03.683Z,7.937
2018-03-11T21:15:03.336Z,7.875
2018-03-11T21:16:03.822Z,7.875
2018-03-11T21:17:03.600Z,7.875
2018-03-11T21:18:03.147Z,7.875
2018-03-11T21:19:03.603Z,7.812
2018-03-11T21:20:04.123Z,7.812
2018-03-11T21:21:03.618Z,7.812
2018-03-11T21:22:03.428Z,7.75
2018-03-11T21:23:03.839Z,7.75
2018-03-11T21:24:03.385Z,7.687
2018-03-11T21:25:03.808Z,7.687
2018-03-11T21:26:03.493Z,7.687
2018-03-11T21:27:03.972Z,7.625
2018-03-11T21:28:03.595Z,7.625
2018-03-11T21:29:03.148Z,7.687
2018-03-11T21:30:03.937Z,7.687
2018-03-11T21:31:03.478Z,7.687
2018-03-11T21:32:04.024Z,7.625
2018-03-11T21:33:03.452Z,7.625
2018-03-11T21:34:03.369Z,7.562
2018-03-11T21:35:03.677Z,7.562
2018-03-11T21:36:03.091Z,7.562
2018-03-11T21:37:03.646Z,7.562
2018-03-11T21:38:03.311Z,7.562
2018-03-11T21:39:03.833Z,7.5
2018-03-11T21:40:03.287Z,7.5
2018-03-11T21:41:03.127Z,7.5
2018-03-11T21:42:03.544Z,7.5
2018-03-11T21:43:03.130Z,7.5
2018-03-11T21:44:03.138Z,7.5
2018-03-11T21:45:03.725Z,7.437
2018-03-11T21:46:03.388Z,7.375
2018-03-11T21:47:04.020Z,7.312
2018-03-11T21:48:03.639Z,7.375
2018-03-11T21:49:03.276Z,7.312
2018-03-11T21:50:03.903Z,7.312
2018-03-11T21:51:03.391Z,7.25
2018-03-11T21:52:03.868Z,7.312
2018-03-11T21:53:03.357Z,7.25
2018-03-11T21:54:03.825Z,7.25
2018-03-11T21:55:03.465Z,7.25
2018-03-11T21:56:03.922Z,7.25
2018-03-11T21:57:03.535Z,7.25
2018-03-11T21:58:03.982Z,7.25
2018-03-11T21:59:03.434Z,7.312
2018-03-11T22:00:03.955Z,7.25
2018-03-11T22:01:04.514Z,7.25
2018-03-11T22:02:03.965Z,7.25
2018-03-11T22:03:03.409Z,7.25
2018-03-11T22:04:03.828Z,7.187
2018-03-11T22:05:03.354Z,7.187
2018-03-11T22:06:03.818Z,7.187
2018-03-11T22:07:03.308Z,7.25
2018-03-11T22:08:03.745Z,7.187
2018-03-11T22:09:03.298Z,7.187
2018-03-11T22:10:04.618Z,7.187
2018-03-11T22:11:03.969Z,7.187
2018-03-11T22:12:03.624Z,7.187
2018-03-11T22:13:03.115Z,7.187
2018-03-11T22:14:03.601Z,7.187
2018-03-11T22:15:03.493Z,7.125
2018-03-11T22:16:03.881Z,7.187
2018-03-11T22:17:03.515Z,7.187
2018-03-11T22:18:04.024Z,7.187
2018-03-11T22:19:03.363Z,7.125
2018-03-11T22:20:03.942Z,7.125
2018-03-11T22:21:03.421Z,7.125
2018-03-11T22:22:03.932Z,7.125
2018-03-11T22:23:03.836Z,7.125
2018-03-11T22:24:03.382Z,7.062
2018-03-11T22:25:03.816Z,7.062
2018-03-11T22:26:03.306Z,7.062
2018-03-11T22:27:03.723Z,7.062
2018-03-11T22:28:03.258Z,7.062
2018-03-11T22:29:03.807Z,7.062
2018-03-11T22:30:03.427Z,7.062
2018-03-11T22:31:03.975Z,7
2018-03-11T22:32:03.537Z,6.937
2018-03-11T22:33:03.972Z,6.937
2018-03-11T22:34:03.468Z,6.875
2018-03-11T22:35:03.822Z,6.875
2018-03-11T22:36:03.425Z,6.812
2018-03-11T22:37:03.929Z,6.812
2018-03-11T22:38:03.431Z,6.812
2018-03-11T22:39:04.008Z,6.812
2018-03-11T22:40:03.551Z,6.812
2018-03-11T22:41:03.761Z,6.812
2018-03-11T22:42:03.207Z,6.812
2018-03-11T22:43:03.626Z,6.75
2018-03-11T22:44:03.120Z,6.75
2018-03-11T22:45:03.680Z,6.687
2018-03-11T22:46:03.180Z,6.687
2018-03-11T22:47:03.747Z,6.687
2018-03-11T22:48:03.264Z,6.75
2018-03-11T22:49:03.773Z,6.75
2018-03-11T22:50:03.252Z,6.812
2018-03-11T22:51:03.715Z,6.812
2018-03-11T22:52:03.386Z,6.812
2018-03-11T22:53:03.976Z,6.812
2018-03-11T22:54:03.559Z,6.75
2018-03-11T22:55:03.971Z,6.687
2018-03-11T22:56:03.359Z,6.687
2018-03-11T22:57:03.728Z,6.687
2018-03-11T22:58:03.516Z,6.625
2018-03-11T22:59:03.127Z,6.625
2018-03-11T23:00:03.966Z,6.625
2018-03-11T23:01:05.018Z,6.625
2018-03-11T23:02:03.572Z,6.625
2018-03-11T23:03:03.190Z,6.625
2018-03-11T23:04:03.737Z,6.625
2018-03-11T23:05:03.765Z,6.625
2018-03-11T23:06:03.094Z,6.687
2018-03-11T23:07:03.675Z,6.687
2018-03-11T23:08:03.154Z,6.687
2018-03-11T23:09:03.799Z,6.687
2018-03-11T23:10:03.245Z,6.687
2018-03-11T23:11:03.140Z,6.625
2018-03-11T23:12:03.616Z,6.562
2018-03-11T23:13:03.157Z,6.562
2018-03-11T23:14:03.532Z,6.562
2018-03-11T23:15:04.275Z,6.562
2018-03-11T23:16:04.948Z,6.5
2018-03-11T23:17:03.469Z,6.5
2018-03-11T23:18:04.017Z,6.5
2018-03-11T23:19:03.539Z,6.5
2018-03-11T23:20:03.953Z,6.437
2018-03-11T23:21:03.425Z,6.5
2018-03-11T23:22:03.870Z,6.437
2018-03-11T23:23:03.906Z,6.312
2018-03-11T23:24:03.399Z,6.312
2018-03-11T23:25:03.955Z,6.25
2018-03-11T23:26:03.401Z,6.25
2018-03-11T23:28:03.518Z,6.187
2018-03-11T23:29:04.953Z,6.187
2018-03-11T23:30:03.507Z,6.125
2018-03-11T23:31:03.985Z,6.125
2018-03-11T23:32:03.459Z,6.125
2018-03-11T23:33:03.852Z,6.125
2018-03-11T23:34:03.988Z,6.062
2018-03-11T23:35:03.626Z,6.062
2018-03-11T23:36:03.329Z,6.062
2018-03-11T23:37:03.892Z,6.062
2018-03-11T23:38:03.464Z,6
2018-03-11T23:39:04.093Z,6
2018-03-11T23:40:03.752Z,5.937
2018-03-11T23:41:03.523Z,5.937
2018-03-11T23:42:03.128Z,6
2018-03-11T23:43:03.613Z,6
2018-03-11T23:44:03.295Z,6
2018-03-11T23:45:03.778Z,6
2018-03-11T23:46:03.365Z,6
2018-03-11T23:47:03.894Z,5.937
2018-03-11T23:48:03.543Z,6
2018-03-11T23:49:03.252Z,5.937
2018-03-11T23:50:03.731Z,5.875
2018-03-11T23:51:03.336Z,5.875
2018-03-11T23:52:04.635Z,5.875
2018-03-11T23:53:03.952Z,5.812
2018-03-11T23:54:03.499Z,5.812
2018-03-11T23:55:03.950Z,5.812
2018-03-11T23:56:03.424Z,5.812
2018-03-11T23:57:04.008Z,5.937
2018-03-11T23:58:03.508Z,5.937
2018-03-11T23:59:03.034Z,5.937
